Airports Norway Bergen Airport Flesland

Bergen Airport Flesland (ENBR / BGO)

Facts about Bergen Airport Flesland

Name Bergen Airport Flesland
City Bergen
Country Norway
ICAO code ENBR
IATA code BGO
Elevation 51.8160 meters (170 feet)

Weather

METAR

Metar data retrieved Sunday, 21 July 2024 at 18:25 UTC (22 minutes ago)

ENBR 211820Z 32006KT 290V350 9000 -RA FEW003 SCT005 BKN007CB 14/14 Q1007 RMK WIND 1200FT 32010KT

Live traffic

Navigraph Charts (account required)